sensor_id;sensor_type;location;lat;lon;timestamp;pressure;altitude;pressure_sealevel;temperature;humidity
60820;BME280;46641;48.904;9.126;2023-11-21T00:02:39;97982.31;;;14.19;64.00
60820;BME280;46641;48.904;9.126;2023-11-21T00:07:30;97987.56;;;14.19;63.59
60820;BME280;46641;48.904;9.126;2023-11-21T00:12:21;97974.41;;;14.19;63.80
60820;BME280;46641;48.904;9.126;2023-11-21T00:17:11;97972.78;;;14.18;63.84
60820;BME280;46641;48.904;9.126;2023-11-21T00:22:01;97965.88;;;14.17;63.95
60820;BME280;46641;48.904;9.126;2023-11-21T00:26:51;97965.25;;;14.15;63.98
60820;BME280;46641;48.904;9.126;2023-11-21T00:31:43;97965.63;;;14.12;64.19
60820;BME280;46641;48.904;9.126;2023-11-21T00:36:34;97964.00;;;14.11;64.08
60820;BME280;46641;48.904;9.126;2023-11-21T00:41:25;97964.81;;;14.11;64.12
60820;BME280;46641;48.904;9.126;2023-11-21T00:46:17;97954.28;;;14.11;64.08
60820;BME280;46641;48.904;9.126;2023-11-21T00:51:07;97964.81;;;14.11;64.11
60820;BME280;46641;48.904;9.126;2023-11-21T00:55:58;97965.97;;;14.09;64.39
60820;BME280;46641;48.904;9.126;2023-11-21T01:00:48;97967.59;;;14.10;64.07
60820;BME280;46641;48.904;9.126;2023-11-21T01:05:38;97963.56;;;14.07;64.21
60820;BME280;46641;48.904;9.126;2023-11-21T01:10:29;97967.16;;;14.06;64.21
60820;BME280;46641;48.904;9.126;2023-11-21T01:15:19;97966.19;;;14.07;64.34
60820;BME280;46641;48.904;9.126;2023-11-21T01:20:10;97961.72;;;14.08;64.14
60820;BME280;46641;48.904;9.126;2023-11-21T01:25:02;97967.16;;;14.06;64.58
60820;BME280;46641;48.904;9.126;2023-11-21T01:29:56;97967.97;;;14.07;64.51
60820;BME280;46641;48.904;9.126;2023-11-21T01:34:47;97961.09;;;14.06;64.43
60820;BME280;46641;48.904;9.126;2023-11-21T01:39:38;97962.09;;;14.05;64.54
60820;BME280;46641;48.904;9.126;2023-11-21T01:44:29;97965.09;;;14.01;64.43
60820;BME280;46641;48.904;9.126;2023-11-21T01:49:19;97964.44;;;13.99;64.47
60820;BME280;46641;48.904;9.126;2023-11-21T01:54:10;97959.00;;;14.01;64.28
60820;BME280;46641;48.904;9.126;2023-11-21T01:59:02;97958.00;;;14.02;64.44
60820;BME280;46641;48.904;9.126;2023-11-21T02:03:52;97957.19;;;14.01;64.65
60820;BME280;46641;48.904;9.126;2023-11-21T02:08:44;97970.53;;;14.00;64.71
60820;BME280;46641;48.904;9.126;2023-11-21T02:13:34;97958.19;;;14.00;64.51
60820;BME280;46641;48.904;9.126;2023-11-21T02:18:25;97964.44;;;13.99;64.66
60820;BME280;46641;48.904;9.126;2023-11-21T02:23:15;97958.19;;;14.00;64.47
60820;BME280;46641;48.904;9.126;2023-11-21T02:28:06;97961.00;;;13.99;64.60
60820;BME280;46641;48.904;9.126;2023-11-21T02:32:57;97965.44;;;13.98;64.82
60820;BME280;46641;48.904;9.126;2023-11-21T02:37:48;97962.63;;;14.00;64.42
60820;BME280;46641;48.904;9.126;2023-11-21T02:42:41;97956.56;;;13.99;64.61
60820;BME280;46641;48.904;9.126;2023-11-21T02:47:31;97960.19;;;13.98;64.72
60820;BME280;46641;48.904;9.126;2023-11-21T02:52:21;97946.38;;;13.96;64.79
60820;BME280;46641;48.904;9.126;2023-11-21T02:57:12;97949.03;;;13.96;64.72
60820;BME280;46641;48.904;9.126;2023-11-21T03:02:02;97940.31;;;13.96;64.70
60820;BME280;46641;48.904;9.126;2023-11-21T03:06:52;97948.41;;;13.94;64.73
60820;BME280;46641;48.904;9.126;2023-11-21T03:11:42;97953.66;;;13.94;65.21
60820;BME280;46641;48.904;9.126;2023-11-21T03:16:33;97954.66;;;13.93;64.76
60820;BME280;46641;48.904;9.126;2023-11-21T03:21:23;97957.47;;;13.92;64.76
60820;BME280;46641;48.904;9.126;2023-11-21T03:26:14;97959.28;;;13.91;65.00
60820;BME280;46641;48.904;9.126;2023-11-21T03:31:04;97962.75;;;13.92;64.80
60820;BME280;46641;48.904;9.126;2023-11-21T03:35:56;97962.53;;;13.93;64.87
60820;BME280;46641;48.904;9.126;2023-11-21T03:40:46;97958.94;;;13.94;64.78
60820;BME280;46641;48.904;9.126;2023-11-21T03:45:37;97963.56;;;13.92;65.21
60820;BME280;46641;48.904;9.126;2023-11-21T03:50:28;97958.66;;;13.89;65.10
60820;BME280;46641;48.904;9.126;2023-11-21T03:55:19;97968.97;;;13.91;65.19
60820;BME280;46641;48.904;9.126;2023-11-21T04:00:09;97976.88;;;13.91;65.12
60820;BME280;46641;48.904;9.126;2023-11-21T04:05:00;97969.81;;;13.91;65.01
60820;BME280;46641;48.904;9.126;2023-11-21T04:09:50;97982.97;;;13.91;65.00
60820;BME280;46641;48.904;9.126;2023-11-21T04:14:40;97984.75;;;13.91;65.03
60820;BME280;46641;48.904;9.126;2023-11-21T04:19:31;97985.97;;;13.88;65.20
60820;BME280;46641;48.904;9.126;2023-11-21T04:24:21;97991.22;;;13.88;65.14
60820;BME280;46641;48.904;9.126;2023-11-21T04:29:11;97986.94;;;13.87;64.86
60820;BME280;46641;48.904;9.126;2023-11-21T04:34:02;97985.97;;;13.88;65.17
60820;BME280;46641;48.904;9.126;2023-11-21T04:38:54;97990.22;;;13.89;65.21
60820;BME280;46641;48.904;9.126;2023-11-21T04:43:44;97995.66;;;13.88;64.84
60820;BME280;46641;48.904;9.126;2023-11-21T04:48:34;97994.03;;;13.87;65.19
60820;BME280;46641;48.904;9.126;2023-11-21T04:53:24;97996.03;;;13.85;65.02
60820;BME280;46641;48.904;9.126;2023-11-21T04:58:15;98000.44;;;13.84;65.37
60820;BME280;46641;48.904;9.126;2023-11-21T05:03:06;97989.31;;;13.82;65.32
60820;BME280;46641;48.904;9.126;2023-11-21T05:07:57;97989.13;;;13.84;65.44
60820;BME280;46641;48.904;9.126;2023-11-21T05:12:47;97998.81;;;13.83;65.23
60820;BME280;46641;48.904;9.126;2023-11-21T05:17:37;97998.38;;;13.79;65.12
60820;BME280;46641;48.904;9.126;2023-11-21T05:22:34;98006.47;;;13.78;65.11
60820;BME280;46641;48.904;9.126;2023-11-21T05:27:24;98003.63;;;13.79;65.22
60820;BME280;46641;48.904;9.126;2023-11-21T05:32:15;98014.34;;;13.78;65.62
60820;BME280;46641;48.904;9.126;2023-11-21T05:37:06;98022.25;;;13.78;65.31
60820;BME280;46641;48.904;9.126;2023-11-21T05:41:56;98027.84;;;13.75;65.59
60820;BME280;46641;48.904;9.126;2023-11-21T05:46:47;98029.47;;;13.76;65.51
60820;BME280;46641;48.904;9.126;2023-11-21T05:51:38;98036.38;;;13.77;65.41
60820;BME280;46641;48.904;9.126;2023-11-21T05:56:28;98042.63;;;13.76;65.31
60820;BME280;46641;48.904;9.126;2023-11-21T06:01:19;98039.19;;;13.75;65.31
60820;BME280;46641;48.904;9.126;2023-11-21T06:06:09;98046.06;;;13.76;65.30
60820;BME280;46641;48.904;9.126;2023-11-21T06:10:59;98056.78;;;13.75;64.93
60820;BME280;46641;48.904;9.126;2023-11-21T06:15:50;98050.88;;;13.73;65.45
60820;BME280;46641;48.904;9.126;2023-11-21T06:20:41;98070.25;;;13.57;64.76
60820;BME280;46641;48.904;9.126;2023-11-21T06:25:32;98052.75;;;13.64;62.56
60820;BME280;46641;48.904;9.126;2023-11-21T06:30:26;98065.63;;;13.13;64.19
60820;BME280;46641;48.904;9.126;2023-11-21T06:35:16;98062.94;;;13.44;63.54
60820;BME280;46641;48.904;9.126;2023-11-21T06:40:07;98074.69;;;13.56;63.73
60820;BME280;46641;48.904;9.126;2023-11-21T06:44:57;98090.56;;;13.63;63.52
60820;BME280;46641;48.904;9.126;2023-11-21T06:49:48;98091.03;;;13.67;63.39
60820;BME280;46641;48.904;9.126;2023-11-21T06:54:39;98096.28;;;13.67;63.75
60820;BME280;46641;48.904;9.126;2023-11-21T06:59:29;98099.28;;;13.64;64.11
60820;BME280;46641;48.904;9.126;2023-11-21T07:04:20;98111.63;;;13.63;64.13
60820;BME280;46641;48.904;9.126;2023-11-21T07:09:10;98119.50;;;13.63;64.16
60820;BME280;46641;48.904;9.126;2023-11-21T07:14:01;98114.78;;;13.59;64.62
60820;BME280;46641;48.904;9.126;2023-11-21T07:18:57;98120.84;;;13.59;64.40
60820;BME280;46641;48.904;9.126;2023-11-21T07:23:47;98131.19;;;13.61;64.63
60820;BME280;46641;48.904;9.126;2023-11-21T07:28:38;98143.34;;;13.62;64.70
60820;BME280;46641;48.904;9.126;2023-11-21T07:33:28;98146.97;;;13.61;64.86
60820;BME280;46641;48.904;9.126;2023-11-21T07:38:18;98141.88;;;13.59;64.69
60820;BME280;46641;48.904;9.126;2023-11-21T07:43:08;98154.84;;;13.61;65.05
60820;BME280;46641;48.904;9.126;2023-11-21T07:48:00;98152.41;;;13.59;64.81
60820;BME280;46641;48.904;9.126;2023-11-21T07:52:53;98153.88;;;13.62;64.81
60820;BME280;46641;48.904;9.126;2023-11-21T07:57:44;98159.13;;;13.62;65.03
60820;BME280;46641;48.904;9.126;2023-11-21T08:02:34;98165.00;;;13.64;65.01
60820;BME280;46641;48.904;9.126;2023-11-21T08:07:25;98174.91;;;13.62;65.10
60820;BME280;46641;48.904;9.126;2023-11-21T08:12:16;98174.72;;;13.63;65.41
60820;BME280;46641;48.904;9.126;2023-11-21T08:17:07;98177.34;;;13.63;65.13
60820;BME280;46641;48.904;9.126;2023-11-21T08:22:00;98177.16;;;13.65;65.37
60820;BME280;46641;48.904;9.126;2023-11-21T08:26:50;98179.63;;;13.66;65.18
60820;BME280;46641;48.904;9.126;2023-11-21T08:31:42;98182.91;;;13.68;65.41
60820;BME280;46641;48.904;9.126;2023-11-21T08:36:32;98182.72;;;13.70;65.23
60820;BME280;46641;48.904;9.126;2023-11-21T08:41:22;98188.81;;;13.70;65.41
60820;BME280;46641;48.904;9.126;2023-11-21T08:46:13;98184.34;;;13.71;65.54
60820;BME280;46641;48.904;9.126;2023-11-21T08:51:04;98187.63;;;13.73;65.42
60820;BME280;46641;48.904;9.126;2023-11-21T08:55:54;98205.03;;;13.74;65.49
60820;BME280;46641;48.904;9.126;2023-11-21T09:00:45;98210.31;;;13.74;65.73
60820;BME280;46641;48.904;9.126;2023-11-21T09:05:39;98204.06;;;13.75;65.63
60820;BME280;46641;48.904;9.126;2023-11-21T09:10:30;98200.44;;;13.76;65.52
60820;BME280;46641;48.904;9.126;2023-11-21T09:15:20;98212.25;;;13.80;65.59
60820;BME280;46641;48.904;9.126;2023-11-21T09:20:10;98217.97;;;13.84;65.78
60820;BME280;46641;48.904;9.126;2023-11-21T09:25:01;98221.41;;;13.84;65.44
60820;BME280;46641;48.904;9.126;2023-11-21T09:29:55;98224.69;;;13.86;65.49
60820;BME280;46641;48.904;9.126;2023-11-21T09:34:45;98238.50;;;13.88;65.44
60820;BME280;46641;48.904;9.126;2023-11-21T09:39:35;98239.31;;;13.89;65.60
60820;BME280;46641;48.904;9.126;2023-11-21T09:44:35;98238.16;;;13.91;65.37
60820;BME280;46641;48.904;9.126;2023-11-21T09:49:28;98246.66;;;13.93;65.51
60820;BME280;46641;48.904;9.126;2023-11-21T09:54:19;98249.97;;;13.95;65.68
60820;BME280;46641;48.904;9.126;2023-11-21T09:59:13;98245.50;;;13.96;65.54
60820;BME280;46641;48.904;9.126;2023-11-21T10:04:05;98247.97;;;13.97;65.70
60820;BME280;46641;48.904;9.126;2023-11-21T10:09:01;98248.78;;;13.98;65.31
60820;BME280;46641;48.904;9.126;2023-11-21T10:13:54;98251.25;;;13.99;65.49
60820;BME280;46641;48.904;9.126;2023-11-21T10:18:49;98254.88;;;13.98;65.42
60820;BME280;46641;48.904;9.126;2023-11-21T10:23:42;98248.44;;;14.01;65.57
60820;BME280;46641;48.904;9.126;2023-11-21T10:28:35;98247.25;;;14.03;65.83
60820;BME280;46641;48.904;9.126;2023-11-21T10:33:27;98247.91;;;14.06;65.40
60820;BME280;46641;48.904;9.126;2023-11-21T10:38:19;98251.53;;;14.05;65.62
60820;BME280;46641;48.904;9.126;2023-11-21T10:43:13;98256.81;;;14.05;65.82
60820;BME280;46641;48.904;9.126;2023-11-21T10:48:06;98255.00;;;14.05;65.72
60820;BME280;46641;48.904;9.126;2023-11-21T10:52:57;98258.44;;;14.06;65.96
60820;BME280;46641;48.904;9.126;2023-11-21T10:57:49;98253.81;;;14.08;65.90
60820;BME280;46641;48.904;9.126;2023-11-21T11:02:41;98253.47;;;14.11;66.13
60820;BME280;46641;48.904;9.126;2023-11-21T11:07:34;98259.00;;;14.16;66.13
60820;BME280;46641;48.904;9.126;2023-11-21T11:12:26;98257.66;;;14.20;65.88
60820;BME280;46641;48.904;9.126;2023-11-21T11:17:16;98256.50;;;14.22;65.82
60820;BME280;46641;48.904;9.126;2023-11-21T11:22:24;98262.22;;;14.26;65.26
60820;BME280;46641;48.904;9.126;2023-11-21T11:33:08;98262.31;;;14.33;64.92
60820;BME280;46641;48.904;9.126;2023-11-21T11:38:01;98271.19;;;14.40;65.35
60820;BME280;46641;48.904;9.126;2023-11-21T11:42:58;98263.75;;;14.43;64.91
60820;BME280;46641;48.904;9.126;2023-11-21T11:47:56;98261.72;;;14.45;65.07
60820;BME280;46641;48.904;9.126;2023-11-21T11:57:42;98265.66;;;14.49;65.03
60820;BME280;46641;48.904;9.126;2023-11-21T12:02:34;98261.22;;;14.50;65.09
60820;BME280;46641;48.904;9.126;2023-11-21T12:07:40;98262.66;;;14.53;64.63
60820;BME280;46641;48.904;9.126;2023-11-21T12:12:31;98271.69;;;14.58;65.04
60820;BME280;46641;48.904;9.126;2023-11-21T12:17:23;98273.78;;;14.63;65.03
60820;BME280;46641;48.904;9.126;2023-11-21T12:22:14;98277.69;;;14.67;64.93
60820;BME280;46641;48.904;9.126;2023-11-21T12:27:04;98270.63;;;14.67;64.70
60820;BME280;46641;48.904;9.126;2023-11-21T12:31:55;98277.16;;;14.71;64.62
60820;BME280;46641;48.904;9.126;2023-11-21T12:36:46;98289.25;;;14.66;64.25
60820;BME280;46641;48.904;9.126;2023-11-21T12:41:37;98295.59;;;14.57;65.43
60820;BME280;46641;48.904;9.126;2023-11-21T12:46:27;98304.69;;;14.69;65.02
60820;BME280;46641;48.904;9.126;2023-11-21T12:51:23;98308.69;;;14.80;64.79
60820;BME280;46641;48.904;9.126;2023-11-21T12:56:13;98297.97;;;14.81;64.57
60820;BME280;46641;48.904;9.126;2023-11-21T13:01:07;98307.19;;;14.85;64.62
60820;BME280;46641;48.904;9.126;2023-11-21T13:06:01;98311.88;;;14.90;64.60
60820;BME280;46641;48.904;9.126;2023-11-21T13:10:56;98307.44;;;14.90;64.49
60820;BME280;46641;48.904;9.126;2023-11-21T13:15:48;98317.06;;;14.83;64.58
60820;BME280;46641;48.904;9.126;2023-11-21T13:20:39;98322.34;;;14.83;64.67
60820;BME280;46641;48.904;9.126;2023-11-21T13:25:29;98323.97;;;14.84;64.55
60820;BME280;46641;48.904;9.126;2023-11-21T13:30:22;98329.59;;;14.81;64.51
60820;BME280;46641;48.904;9.126;2023-11-21T13:35:17;98326.50;;;14.78;64.47
60820;BME280;46641;48.904;9.126;2023-11-21T13:40:10;98330.28;;;14.75;64.92
60820;BME280;46641;48.904;9.126;2023-11-21T13:45:05;98328.31;;;14.77;65.09
60820;BME280;46641;48.904;9.126;2023-11-21T13:49:55;98342.50;;;14.76;64.73
60820;BME280;46641;48.904;9.126;2023-11-21T13:54:46;98351.72;;;14.72;64.96
60820;BME280;46641;48.904;9.126;2023-11-21T13:59:37;98350.28;;;14.69;65.06
60820;BME280;46641;48.904;9.126;2023-11-21T14:04:27;98358.34;;;14.68;64.97
60820;BME280;46641;48.904;9.126;2023-11-21T14:09:22;98363.09;;;13.56;67.62
60820;BME280;46641;48.904;9.126;2023-11-21T14:14:14;98364.00;;;13.79;65.95
60820;BME280;46641;48.904;9.126;2023-11-21T14:19:05;98376.59;;;13.92;66.02
60820;BME280;46641;48.904;9.126;2023-11-21T14:24:05;98382.66;;;14.01;65.34
60820;BME280;46641;48.904;9.126;2023-11-21T14:28:59;98382.59;;;14.09;64.93
60820;BME280;46641;48.904;9.126;2023-11-21T14:33:49;98384.22;;;14.10;65.06
60820;BME280;46641;48.904;9.126;2023-11-21T14:38:40;98385.25;;;13.70;66.08
60820;BME280;46641;48.904;9.126;2023-11-21T14:43:30;98399.94;;;13.95;65.36
60820;BME280;46641;48.904;9.126;2023-11-21T14:48:25;98406.31;;;14.01;65.30
60820;BME280;46641;48.904;9.126;2023-11-21T14:53:37;98412.34;;;14.10;65.34
60820;BME280;46641;48.904;9.126;2023-11-21T14:58:38;98423.66;;;14.18;65.01
60820;BME280;46641;48.904;9.126;2023-11-21T15:03:29;98421.16;;;14.25;64.76
60820;BME280;46641;48.904;9.126;2023-11-21T15:08:23;98429.72;;;14.27;64.75
60820;BME280;46641;48.904;9.126;2023-11-21T15:13:21;98442.53;;;14.30;64.89
60820;BME280;46641;48.904;9.126;2023-11-21T15:18:14;98459.63;;;14.34;64.97
60820;BME280;46641;48.904;9.126;2023-11-21T15:23:04;98457.47;;;14.38;65.00
60820;BME280;46641;48.904;9.126;2023-11-21T15:27:56;98455.28;;;14.41;65.03
60820;BME280;46641;48.904;9.126;2023-11-21T15:32:46;98468.13;;;14.44;65.09
60820;BME280;46641;48.904;9.126;2023-11-21T15:37:36;98470.75;;;14.44;65.04
60820;BME280;46641;48.904;9.126;2023-11-21T15:42:27;98465.50;;;14.44;64.93
60820;BME280;46641;48.904;9.126;2023-11-21T15:47:17;98475.19;;;14.44;65.19
60820;BME280;46641;48.904;9.126;2023-11-21T15:52:08;98482.97;;;14.37;65.51
60820;BME280;46641;48.904;9.126;2023-11-21T15:57:00;98491.09;;;13.64;67.87
60820;BME280;46641;48.904;9.126;2023-11-21T16:01:50;98485.41;;;14.08;66.29
60820;BME280;46641;48.904;9.126;2023-11-21T16:06:41;98494.22;;;14.23;65.70
60820;BME280;46641;48.904;9.126;2023-11-21T16:11:32;98495.19;;;14.30;65.67
60820;BME280;46641;48.904;9.126;2023-11-21T16:16:23;98509.97;;;14.31;65.38
60820;BME280;46641;48.904;9.126;2023-11-21T16:21:14;98503.91;;;14.31;65.48
60820;BME280;46641;48.904;9.126;2023-11-21T16:26:05;98509.97;;;14.31;65.69
60820;BME280;46641;48.904;9.126;2023-11-21T16:30:55;98520.66;;;14.30;65.64
60820;BME280;46641;48.904;9.126;2023-11-21T16:35:46;98526.78;;;14.30;65.52
60820;BME280;46641;48.904;9.126;2023-11-21T16:40:37;98530.38;;;14.29;65.82
60820;BME280;46641;48.904;9.126;2023-11-21T16:45:27;98528.75;;;14.28;65.91
60820;BME280;46641;48.904;9.126;2023-11-21T16:50:18;98536.00;;;14.26;65.97
60820;BME280;46641;48.904;9.126;2023-11-21T16:55:08;98546.84;;;14.23;65.92
60820;BME280;46641;48.904;9.126;2023-11-21T16:59:59;98555.09;;;14.20;65.91
60820;BME280;46641;48.904;9.126;2023-11-21T17:04:50;98556.63;;;14.14;66.24
60820;BME280;46641;48.904;9.126;2023-11-21T17:09:40;98566.31;;;14.14;66.28
60820;BME280;46641;48.904;9.126;2023-11-21T17:14:31;98579.97;;;14.09;66.29
60820;BME280;46641;48.904;9.126;2023-11-21T17:19:21;98579.34;;;14.07;66.27
60820;BME280;46641;48.904;9.126;2023-11-21T17:24:12;98587.72;;;14.02;66.30
60820;BME280;46641;48.904;9.126;2023-11-21T17:29:02;98598.25;;;14.02;66.52
60820;BME280;46641;48.904;9.126;2023-11-21T17:33:52;98600.88;;;13.29;66.55
60820;BME280;46641;48.904;9.126;2023-11-21T17:38:44;98613.41;;;13.60;64.55
60820;BME280;46641;48.904;9.126;2023-11-21T17:43:34;98613.91;;;13.63;63.64
60820;BME280;46641;48.904;9.126;2023-11-21T17:48:29;98613.72;;;13.56;63.97
60820;BME280;46641;48.904;9.126;2023-11-21T17:53:20;98626.69;;;13.58;64.20
60820;BME280;46641;48.904;9.126;2023-11-21T17:58:12;98631.63;;;13.61;64.24
60820;BME280;46641;48.904;9.126;2023-11-21T18:03:02;98637.38;;;13.65;64.46
60820;BME280;46641;48.904;9.126;2023-11-21T18:07:53;98645.13;;;13.66;64.66
60820;BME280;46641;48.904;9.126;2023-11-21T18:12:44;98648.75;;;13.65;64.91
60820;BME280;46641;48.904;9.126;2023-11-21T18:17:35;98647.91;;;13.65;64.71
60820;BME280;46641;48.904;9.126;2023-11-21T18:22:25;98652.53;;;13.63;65.26
60820;BME280;46641;48.904;9.126;2023-11-21T18:27:17;98661.25;;;13.63;65.17
60820;BME280;46641;48.904;9.126;2023-11-21T18:32:07;98668.13;;;13.64;65.31
60820;BME280;46641;48.904;9.126;2023-11-21T18:37:00;98671.94;;;13.62;65.51
60820;BME280;46641;48.904;9.126;2023-11-21T18:41:50;98681.28;;;13.64;65.26
60820;BME280;46641;48.904;9.126;2023-11-21T18:46:42;98673.41;;;13.64;65.19
60820;BME280;46641;48.904;9.126;2023-11-21T18:51:32;98678.66;;;13.64;65.54
60820;BME280;46641;48.904;9.126;2023-11-21T18:56:24;98686.53;;;13.64;65.29
60820;BME280;46641;48.904;9.126;2023-11-21T19:01:29;98690.97;;;13.64;65.22
60820;BME280;46641;48.904;9.126;2023-11-21T19:06:20;98696.41;;;13.62;65.77
60820;BME280;46641;48.904;9.126;2023-11-21T19:11:11;98706.63;;;13.65;65.69
60820;BME280;46641;48.904;9.126;2023-11-21T19:16:01;98715.47;;;13.64;65.88
60820;BME280;46641;48.904;9.126;2023-11-21T19:20:52;98729.63;;;13.63;65.79
60820;BME280;46641;48.904;9.126;2023-11-21T19:25:42;98730.44;;;13.64;65.89
60820;BME280;46641;48.904;9.126;2023-11-21T19:30:32;98736.50;;;13.64;65.93
60820;BME280;46641;48.904;9.126;2023-11-21T19:35:25;98748.84;;;13.64;65.80
60820;BME280;46641;48.904;9.126;2023-11-21T19:40:16;98749.84;;;13.63;65.89
60820;BME280;46641;48.904;9.126;2023-11-21T19:45:13;98742.94;;;13.62;66.02
60820;BME280;46641;48.904;9.126;2023-11-21T19:50:05;98749.16;;;13.61;66.11
60820;BME280;46641;48.904;9.126;2023-11-21T19:54:57;98759.19;;;13.57;66.23
60820;BME280;46641;48.904;9.126;2023-11-21T19:59:47;98767.91;;;13.57;66.10
60820;BME280;46641;48.904;9.126;2023-11-21T20:04:38;98776.78;;;13.56;65.93
60820;BME280;46641;48.904;9.126;2023-11-21T20:09:29;98784.66;;;13.56;66.22
60820;BME280;46641;48.904;9.126;2023-11-21T20:14:20;98790.91;;;13.55;66.20
60820;BME280;46641;48.904;9.126;2023-11-21T20:19:11;98785.66;;;13.55;65.92
60820;BME280;46641;48.904;9.126;2023-11-21T20:24:01;98791.75;;;13.56;66.11
60820;BME280;46641;48.904;9.126;2023-11-21T20:28:52;98799.44;;;13.57;66.26
60820;BME280;46641;48.904;9.126;2023-11-21T20:33:44;98807.19;;;13.59;66.20
60820;BME280;46641;48.904;9.126;2023-11-21T20:38:34;98815.22;;;13.57;66.24
60820;BME280;46641;48.904;9.126;2023-11-21T20:43:24;98824.09;;;13.56;66.25
60820;BME280;46641;48.904;9.126;2023-11-21T20:48:15;98825.91;;;13.56;66.33
60820;BME280;46641;48.904;9.126;2023-11-21T20:53:08;98830.38;;;13.55;66.38
60820;BME280;46641;48.904;9.126;2023-11-21T20:58:00;98823.59;;;13.53;66.23
60820;BME280;46641;48.904;9.126;2023-11-21T21:02:50;98826.25;;;13.53;66.28
60820;BME280;46641;48.904;9.126;2023-11-21T21:07:42;98829.69;;;13.53;66.31
60820;BME280;46641;48.904;9.126;2023-11-21T21:12:33;98833.13;;;13.54;66.16
60820;BME280;46641;48.904;9.126;2023-11-21T21:17:23;98831.31;;;13.54;66.46
60820;BME280;46641;48.904;9.126;2023-11-21T21:22:15;98836.59;;;13.54;66.41
60820;BME280;46641;48.904;9.126;2023-11-21T21:27:06;98831.50;;;13.53;66.15
60820;BME280;46641;48.904;9.126;2023-11-21T21:31:56;98834.25;;;13.51;66.39
60820;BME280;46641;48.904;9.126;2023-11-21T21:36:46;98836.91;;;13.51;66.57
60820;BME280;46641;48.904;9.126;2023-11-21T21:41:38;98844.78;;;13.51;66.51
60820;BME280;46641;48.904;9.126;2023-11-21T21:46:28;98838.88;;;13.49;66.36
60820;BME280;46641;48.904;9.126;2023-11-21T21:51:19;98846.78;;;13.49;66.52
60820;BME280;46641;48.904;9.126;2023-11-21T21:56:09;98831.81;;;13.50;66.61
60820;BME280;46641;48.904;9.126;2023-11-21T22:01:01;98846.91;;;13.48;66.45
60820;BME280;46641;48.904;9.126;2023-11-21T22:05:52;98850.22;;;13.50;66.50
60820;BME280;46641;48.904;9.126;2023-11-21T22:10:43;98851.22;;;13.49;66.63
60820;BME280;46641;48.904;9.126;2023-11-21T22:15:33;98853.00;;;13.48;66.59
60820;BME280;46641;48.904;9.126;2023-11-21T22:20:24;98855.78;;;13.47;66.79
60820;BME280;46641;48.904;9.126;2023-11-21T22:25:15;98861.88;;;13.47;66.62
60820;BME280;46641;48.904;9.126;2023-11-21T22:30:06;98866.31;;;13.47;66.78
60820;BME280;46641;48.904;9.126;2023-11-21T22:34:58;98863.50;;;13.48;66.58
60820;BME280;46641;48.904;9.126;2023-11-21T22:39:48;98855.78;;;13.47;66.38
60820;BME280;46641;48.904;9.126;2023-11-21T22:44:41;98868.94;;;13.47;66.52
60820;BME280;46641;48.904;9.126;2023-11-21T22:49:32;98873.38;;;13.46;66.65
60820;BME280;46641;48.904;9.126;2023-11-21T22:54:22;98876.66;;;13.48;66.96
60820;BME280;46641;48.904;9.126;2023-11-21T22:59:12;98883.91;;;13.46;66.31
60820;BME280;46641;48.904;9.126;2023-11-21T23:04:03;98873.53;;;13.45;66.64
60820;BME280;46641;48.904;9.126;2023-11-21T23:08:54;98879.75;;;13.44;66.69
60820;BME280;46641;48.904;9.126;2023-11-21T23:13:44;98885.84;;;13.44;66.66
60820;BME280;46641;48.904;9.126;2023-11-21T23:18:35;98884.84;;;13.45;66.86
60820;BME280;46641;48.904;9.126;2023-11-21T23:23:25;98891.09;;;13.44;66.92
60820;BME280;46641;48.904;9.126;2023-11-21T23:28:17;98898.16;;;13.44;66.84
60820;BME280;46641;48.904;9.126;2023-11-21T23:33:10;98910.50;;;13.43;66.79
60820;BME280;46641;48.904;9.126;2023-11-21T23:38:01;98915.06;;;13.41;66.20
60820;BME280;46641;48.904;9.126;2023-11-21T23:42:51;98931.59;;;13.07;65.93
60820;BME280;46641;48.904;9.126;2023-11-21T23:47:41;98933.28;;;12.91;65.76
60820;BME280;46641;48.904;9.126;2023-11-21T23:52:32;98935.00;;;12.82;66.62
60820;BME280;46641;48.904;9.126;2023-11-21T23:57:22;98934.59;;;12.77;67.26
